Terminal Aerodrome Forecast
Issued by NWS

Home | Current Version | Previous Version | Text Only | Print | Product List | Glossary On
Versions: 1 2 3 4 5 6 7 8 9 10 11 12 13 14 15 16 17 18 19 20 21 22 23 24 25 26 27 28 29 30
000
FTUS41 KBUF 041720
TAFIAG
TAF
KIAG 041720Z 0418/0518 08014KT P6SM SCT035 SCT250
     FM042300 06008KT P6SM SCT250
     FM050600 VRB03KT 4SM BR SCT250
     FM051300 17006KT P6SM SCT060
     FM051600 21007KT P6SM SCT060=

USA.gov is the U.S. government's official web portal to all federal, state and local government web resources and services.